sensor_id;sensor_type;location;lat;lon;timestamp;pressure;altitude;pressure_sealevel;temperature;humidity
41886;BME280;27567;43.084;25.616;2023-05-29T00:02:07;98007.03;;;13.18;100.00
41886;BME280;27567;43.084;25.616;2023-05-29T00:04:51;97996.72;;;13.15;100.00
41886;BME280;27567;43.084;25.616;2023-05-29T00:07:35;97997.03;;;13.06;100.00
41886;BME280;27567;43.084;25.616;2023-05-29T00:10:19;98000.16;;;13.03;100.00
41886;BME280;27567;43.084;25.616;2023-05-29T00:13:03;98009.75;;;12.99;100.00
41886;BME280;27567;43.084;25.616;2023-05-29T00:15:47;98003.19;;;12.95;100.00
41886;BME280;27567;43.084;25.616;2023-05-29T00:18:31;98005.47;;;12.91;100.00
41886;BME280;27567;43.084;25.616;2023-05-29T00:21:15;98007.81;;;12.88;100.00
41886;BME280;27567;43.084;25.616;2023-05-29T00:24:00;98011.25;;;12.95;100.00
41886;BME280;27567;43.084;25.616;2023-05-29T00:26:44;98010.03;;;12.91;100.00
41886;BME280;27567;43.084;25.616;2023-05-29T00:29:28;98005.41;;;12.98;100.00
41886;BME280;27567;43.084;25.616;2023-05-29T00:32:12;98014.91;;;13.01;100.00
41886;BME280;27567;43.084;25.616;2023-05-29T00:34:56;98016.63;;;12.95;100.00
41886;BME280;27567;43.084;25.616;2023-05-29T00:37:40;98017.22;;;12.97;100.00
41886;BME280;27567;43.084;25.616;2023-05-29T00:40:25;98017.34;;;13.02;100.00
41886;BME280;27567;43.084;25.616;2023-05-29T00:43:09;98016.25;;;13.10;100.00
41886;BME280;27567;43.084;25.616;2023-05-29T00:45:53;98013.47;;;13.17;100.00
41886;BME280;27567;43.084;25.616;2023-05-29T00:48:38;98017.41;;;13.14;100.00
41886;BME280;27567;43.084;25.616;2023-05-29T00:51:22;98014.78;;;13.26;100.00
41886;BME280;27567;43.084;25.616;2023-05-29T00:54:07;98012.47;;;13.30;100.00
41886;BME280;27567;43.084;25.616;2023-05-29T00:56:51;98017.72;;;13.25;100.00
41886;BME280;27567;43.084;25.616;2023-05-29T00:59:36;98007.53;;;13.27;100.00
41886;BME280;27567;43.084;25.616;2023-05-29T01:02:21;98023.16;;;13.36;100.00
41886;BME280;27567;43.084;25.616;2023-05-29T01:05:07;98018.56;;;13.37;100.00
41886;BME280;27567;43.084;25.616;2023-05-29T01:07:53;98009.03;;;13.41;100.00
41886;BME280;27567;43.084;25.616;2023-05-29T01:10:37;98010.00;;;13.47;100.00
41886;BME280;27567;43.084;25.616;2023-05-29T01:13:27;98009.31;;;13.51;100.00
41886;BME280;27567;43.084;25.616;2023-05-29T01:16:21;98006.63;;;13.51;100.00
41886;BME280;27567;43.084;25.616;2023-05-29T01:26:16;98003.63;;;13.60;100.00
41886;BME280;27567;43.084;25.616;2023-05-29T01:29:07;98002.78;;;13.59;100.00
41886;BME280;27567;43.084;25.616;2023-05-29T01:31:52;97990.59;;;13.57;100.00
41886;BME280;27567;43.084;25.616;2023-05-29T01:34:37;98001.38;;;13.57;100.00
41886;BME280;27567;43.084;25.616;2023-05-29T01:37:21;97996.94;;;13.62;100.00
41886;BME280;27567;43.084;25.616;2023-05-29T01:40:05;97998.00;;;13.61;100.00
41886;BME280;27567;43.084;25.616;2023-05-29T01:42:49;97997.75;;;13.63;100.00
41886;BME280;27567;43.084;25.616;2023-05-29T01:45:34;97992.34;;;13.63;100.00
41886;BME280;27567;43.084;25.616;2023-05-29T01:48:19;97997.28;;;13.66;100.00
41886;BME280;27567;43.084;25.616;2023-05-29T01:51:03;97986.63;;;13.59;100.00
41886;BME280;27567;43.084;25.616;2023-05-29T01:53:48;97987.22;;;13.61;100.00
41886;BME280;27567;43.084;25.616;2023-05-29T01:56:33;97988.88;;;13.74;100.00
41886;BME280;27567;43.084;25.616;2023-05-29T01:59:17;97987.94;;;13.68;100.00
41886;BME280;27567;43.084;25.616;2023-05-29T02:02:09;97988.53;;;13.71;100.00
41886;BME280;27567;43.084;25.616;2023-05-29T02:04:53;97990.50;;;13.63;100.00
41886;BME280;27567;43.084;25.616;2023-05-29T02:07:37;97987.66;;;13.58;100.00
41886;BME280;27567;43.084;25.616;2023-05-29T02:10:22;97992.84;;;13.60;100.00
41886;BME280;27567;43.084;25.616;2023-05-29T02:13:06;97991.19;;;13.59;100.00
41886;BME280;27567;43.084;25.616;2023-05-29T02:15:50;97990.59;;;13.57;100.00
41886;BME280;27567;43.084;25.616;2023-05-29T02:18:34;97997.28;;;13.66;100.00
41886;BME280;27567;43.084;25.616;2023-05-29T02:21:18;98000.22;;;13.64;100.00
41886;BME280;27567;43.084;25.616;2023-05-29T02:24:02;98007.00;;;13.67;100.00
41886;BME280;27567;43.084;25.616;2023-05-29T02:26:47;98008.94;;;13.78;100.00
41886;BME280;27567;43.084;25.616;2023-05-29T02:29:32;98010.88;;;13.71;100.00
41886;BME280;27567;43.084;25.616;2023-05-29T02:32:16;98010.88;;;13.71;100.00
41886;BME280;27567;43.084;25.616;2023-05-29T02:35:00;98013.03;;;13.81;100.00
41886;BME280;27567;43.084;25.616;2023-05-29T02:37:44;98013.38;;;13.85;100.00
41886;BME280;27567;43.084;25.616;2023-05-29T02:40:28;98007.44;;;13.82;100.00
41886;BME280;27567;43.084;25.616;2023-05-29T02:43:13;98021.97;;;13.93;100.00
41886;BME280;27567;43.084;25.616;2023-05-29T02:45:58;98007.63;;;13.81;100.00
41886;BME280;27567;43.084;25.616;2023-05-29T02:48:42;98018.09;;;13.89;100.00
41886;BME280;27567;43.084;25.616;2023-05-29T02:51:26;98015.97;;;13.79;100.00
41886;BME280;27567;43.084;25.616;2023-05-29T02:54:10;98014.91;;;13.80;100.00
41886;BME280;27567;43.084;25.616;2023-05-29T02:56:55;98012.91;;;13.88;100.00
41886;BME280;27567;43.084;25.616;2023-05-29T02:59:40;98013.75;;;13.88;100.00
41886;BME280;27567;43.084;25.616;2023-05-29T03:02:24;98019.59;;;13.85;100.00
41886;BME280;27567;43.084;25.616;2023-05-29T03:05:08;98023.69;;;13.88;100.00
41886;BME280;27567;43.084;25.616;2023-05-29T03:07:53;98020.09;;;13.94;100.00
41886;BME280;27567;43.084;25.616;2023-05-29T03:10:36;98007.28;;;13.77;100.00
41886;BME280;27567;43.084;25.616;2023-05-29T03:13:21;98004.13;;;13.80;100.00
41886;BME280;27567;43.084;25.616;2023-05-29T03:16:05;98013.28;;;13.91;100.00
41886;BME280;27567;43.084;25.616;2023-05-29T03:18:50;98021.59;;;13.90;100.00
41886;BME280;27567;43.084;25.616;2023-05-29T03:21:34;98021.97;;;13.93;100.00
41886;BME280;27567;43.084;25.616;2023-05-29T03:24:20;98016.00;;;13.91;100.00
41886;BME280;27567;43.084;25.616;2023-05-29T03:27:04;98021.25;;;13.86;100.00
41886;BME280;27567;43.084;25.616;2023-05-29T03:29:48;98017.72;;;13.86;100.00
41886;BME280;27567;43.084;25.616;2023-05-29T03:32:32;98013.94;;;13.75;100.00
41886;BME280;27567;43.084;25.616;2023-05-29T03:35:16;98007.97;;;13.73;100.00
41886;BME280;27567;43.084;25.616;2023-05-29T03:38:00;98017.19;;;13.65;100.00
41886;BME280;27567;43.084;25.616;2023-05-29T03:40:44;98021.31;;;13.67;100.00
41886;BME280;27567;43.084;25.616;2023-05-29T03:43:28;98026.69;;;13.67;100.00
41886;BME280;27567;43.084;25.616;2023-05-29T03:46:12;98025.19;;;13.72;100.00
41886;BME280;27567;43.084;25.616;2023-05-29T03:48:56;98029.06;;;13.76;100.00
41886;BME280;27567;43.084;25.616;2023-05-29T03:51:40;98037.91;;;13.95;100.00
41886;BME280;27567;43.084;25.616;2023-05-29T03:54:24;98031.31;;;13.91;100.00
41886;BME280;27567;43.084;25.616;2023-05-29T03:57:08;98030.38;;;13.85;100.00
41886;BME280;27567;43.084;25.616;2023-05-29T03:59:52;98044.94;;;13.96;100.00
41886;BME280;27567;43.084;25.616;2023-05-29T04:02:40;98041.81;;;14.11;100.00
41886;BME280;27567;43.084;25.616;2023-05-29T04:05:25;98046.28;;;14.29;100.00
41886;BME280;27567;43.084;25.616;2023-05-29T04:08:08;98047.66;;;14.20;100.00
41886;BME280;27567;43.084;25.616;2023-05-29T04:10:54;98042.63;;;14.35;100.00
41886;BME280;27567;43.084;25.616;2023-05-29T04:13:39;98046.88;;;14.43;100.00
41886;BME280;27567;43.084;25.616;2023-05-29T04:16:23;98055.44;;;14.28;100.00
41886;BME280;27567;43.084;25.616;2023-05-29T04:19:07;98048.03;;;14.47;100.00
41886;BME280;27567;43.084;25.616;2023-05-29T04:21:51;98050.63;;;14.42;100.00
41886;BME280;27567;43.084;25.616;2023-05-29T04:24:35;98053.94;;;14.44;100.00
41886;BME280;27567;43.084;25.616;2023-05-29T04:27:19;98044.06;;;14.38;100.00
41886;BME280;27567;43.084;25.616;2023-05-29T04:30:07;98050.13;;;14.33;100.00
41886;BME280;27567;43.084;25.616;2023-05-29T04:32:51;98045.13;;;14.37;100.00
41886;BME280;27567;43.084;25.616;2023-05-29T04:35:36;98053.66;;;14.34;100.00
41886;BME280;27567;43.084;25.616;2023-05-29T04:38:19;98050.72;;;14.47;100.00
41886;BME280;27567;43.084;25.616;2023-05-29T04:41:08;98050.53;;;14.49;100.00
41886;BME280;27567;43.084;25.616;2023-05-29T04:43:54;98052.16;;;14.38;100.00
41886;BME280;27567;43.084;25.616;2023-05-29T04:46:40;98049.19;;;14.27;100.00
41886;BME280;27567;43.084;25.616;2023-05-29T04:49:27;98054.13;;;14.31;100.00
41886;BME280;27567;43.084;25.616;2023-05-29T04:52:11;98049.91;;;14.23;100.00
41886;BME280;27567;43.084;25.616;2023-05-29T04:54:55;98058.69;;;14.18;100.00
41886;BME280;27567;43.084;25.616;2023-05-29T04:57:40;98066.66;;;14.13;100.00
41886;BME280;27567;43.084;25.616;2023-05-29T05:00:24;98056.66;;;14.02;100.00
41886;BME280;27567;43.084;25.616;2023-05-29T05:03:09;98058.09;;;14.04;100.00
41886;BME280;27567;43.084;25.616;2023-05-29T05:05:54;98063.56;;;13.97;100.00
41886;BME280;27567;43.084;25.616;2023-05-29T05:08:38;98069.94;;;14.15;100.00
41886;BME280;27567;43.084;25.616;2023-05-29T05:11:23;98071.66;;;14.09;100.00
41886;BME280;27567;43.084;25.616;2023-05-29T05:14:07;98076.13;;;14.16;100.00
41886;BME280;27567;43.084;25.616;2023-05-29T05:16:51;98079.75;;;14.09;100.00
41886;BME280;27567;43.084;25.616;2023-05-29T05:19:35;98069.66;;;14.05;100.00
41886;BME280;27567;43.084;25.616;2023-05-29T05:22:19;98067.31;;;14.08;100.00
41886;BME280;27567;43.084;25.616;2023-05-29T05:25:03;98060.81;;;14.28;100.00
41886;BME280;27567;43.084;25.616;2023-05-29T05:27:47;98067.03;;;14.28;100.00
41886;BME280;27567;43.084;25.616;2023-05-29T05:30:31;98069.84;;;14.34;100.00
41886;BME280;27567;43.084;25.616;2023-05-29T05:33:15;98080.53;;;14.40;100.00
41886;BME280;27567;43.084;25.616;2023-05-29T05:36:00;98071.50;;;14.47;100.00
41886;BME280;27567;43.084;25.616;2023-05-29T05:38:44;98075.84;;;14.48;100.00
41886;BME280;27567;43.084;25.616;2023-05-29T05:41:28;98075.59;;;14.49;100.00
41886;BME280;27567;43.084;25.616;2023-05-29T05:44:12;98078.06;;;14.51;100.00
41886;BME280;27567;43.084;25.616;2023-05-29T05:46:56;98074.22;;;14.58;100.00
41886;BME280;27567;43.084;25.616;2023-05-29T05:49:41;98075.88;;;14.71;100.00
41886;BME280;27567;43.084;25.616;2023-05-29T05:52:25;98077.84;;;14.64;100.00
41886;BME280;27567;43.084;25.616;2023-05-29T05:55:15;98075.84;;;14.48;100.00
41886;BME280;27567;43.084;25.616;2023-05-29T05:58:05;98088.63;;;14.52;100.00
41886;BME280;27567;43.084;25.616;2023-05-29T06:00:50;98086.38;;;14.49;100.00
41886;BME280;27567;43.084;25.616;2023-05-29T06:03:36;98085.59;;;14.61;100.00
41886;BME280;27567;43.084;25.616;2023-05-29T06:06:21;98089.00;;;14.56;100.00
41886;BME280;27567;43.084;25.616;2023-05-29T06:09:05;98094.25;;;14.51;100.00
41886;BME280;27567;43.084;25.616;2023-05-29T06:11:49;98082.56;;;14.69;100.00
41886;BME280;27567;43.084;25.616;2023-05-29T06:14:33;98077.63;;;14.54;100.00
41886;BME280;27567;43.084;25.616;2023-05-29T06:17:17;98085.72;;;14.54;100.00
41886;BME280;27567;43.084;25.616;2023-05-29T06:20:01;98083.00;;;14.54;100.00
41886;BME280;27567;43.084;25.616;2023-05-29T06:22:46;98074.66;;;14.67;100.00
41886;BME280;27567;43.084;25.616;2023-05-29T06:25:34;98084.19;;;14.70;100.00
41886;BME280;27567;43.084;25.616;2023-05-29T06:28:18;98092.78;;;14.79;100.00
41886;BME280;27567;43.084;25.616;2023-05-29T06:31:02;98096.03;;;14.81;100.00
41886;BME280;27567;43.084;25.616;2023-05-29T06:33:46;98080.19;;;14.61;100.00
41886;BME280;27567;43.084;25.616;2023-05-29T06:36:30;98076.47;;;14.73;100.00
41886;BME280;27567;43.084;25.616;2023-05-29T06:39:16;98079.75;;;14.76;100.00
41886;BME280;27567;43.084;25.616;2023-05-29T06:42:02;98080.56;;;14.76;100.00
41886;BME280;27567;43.084;25.616;2023-05-29T06:44:46;98095.22;;;14.92;100.00
41886;BME280;27567;43.084;25.616;2023-05-29T06:47:30;98088.53;;;14.71;100.00
41886;BME280;27567;43.084;25.616;2023-05-29T06:50:15;98085.59;;;14.61;100.00
41886;BME280;27567;43.084;25.616;2023-05-29T06:52:58;98078.06;;;14.51;100.00
41886;BME280;27567;43.084;25.616;2023-05-29T06:55:43;98075.59;;;14.49;100.00
41886;BME280;27567;43.084;25.616;2023-05-29T06:58:27;98079.34;;;14.60;100.00
41886;BME280;27567;43.084;25.616;2023-05-29T07:01:11;98075.59;;;14.61;100.00
41886;BME280;27567;43.084;25.616;2023-05-29T07:03:55;98077.03;;;14.52;100.00
41886;BME280;27567;43.084;25.616;2023-05-29T07:06:39;98074.66;;;14.55;100.00
41886;BME280;27567;43.084;25.616;2023-05-29T07:09:22;98088.31;;;14.72;100.00
41886;BME280;27567;43.084;25.616;2023-05-29T07:12:08;98097.56;;;14.65;100.00
41886;BME280;27567;43.084;25.616;2023-05-29T07:14:51;98097.19;;;14.49;100.00
41886;BME280;27567;43.084;25.616;2023-05-29T07:17:35;98106.34;;;14.60;100.00
41886;BME280;27567;43.084;25.616;2023-05-29T07:20:19;98106.84;;;14.81;100.00
41886;BME280;27567;43.084;25.616;2023-05-29T07:23:04;98105.41;;;14.66;100.00
41886;BME280;27567;43.084;25.616;2023-05-29T07:25:48;98106.34;;;14.60;100.00
41886;BME280;27567;43.084;25.616;2023-05-29T07:28:32;98098.47;;;14.47;100.00
41886;BME280;27567;43.084;25.616;2023-05-29T07:31:16;98108.41;;;14.34;100.00
41886;BME280;27567;43.084;25.616;2023-05-29T07:34:00;98108.78;;;14.38;100.00
41886;BME280;27567;43.084;25.616;2023-05-29T07:36:59;98107.59;;;14.34;100.00
41886;BME280;27567;43.084;25.616;2023-05-29T07:39:44;98110.16;;;14.28;100.00
41886;BME280;27567;43.084;25.616;2023-05-29T07:42:28;98107.94;;;14.37;100.00
41886;BME280;27567;43.084;25.616;2023-05-29T07:45:12;98116.50;;;14.46;100.00
41886;BME280;27567;43.084;25.616;2023-05-29T07:47:56;98118.75;;;14.49;100.00
41886;BME280;27567;43.084;25.616;2023-05-29T07:50:40;98131.19;;;14.62;100.00
41886;BME280;27567;43.084;25.616;2023-05-29T07:53:24;98114.53;;;14.41;100.00
41886;BME280;27567;43.084;25.616;2023-05-29T07:56:09;98111.81;;;14.41;100.00
41886;BME280;27567;43.084;25.616;2023-05-29T07:58:52;98115.31;;;14.18;100.00
41886;BME280;27567;43.084;25.616;2023-05-29T08:01:39;98117.91;;;14.25;100.00
41886;BME280;27567;43.084;25.616;2023-05-29T08:04:22;98105.13;;;14.20;100.00
41886;BME280;27567;43.084;25.616;2023-05-29T08:07:06;98123.66;;;14.40;100.00
41886;BME280;27567;43.084;25.616;2023-05-29T08:09:50;98107.47;;;14.40;100.00
41886;BME280;27567;43.084;25.616;2023-05-29T08:12:34;98120.19;;;14.52;100.00
41886;BME280;27567;43.084;25.616;2023-05-29T08:15:19;98117.16;;;14.72;100.00
41886;BME280;27567;43.084;25.616;2023-05-29T08:18:03;98124.78;;;14.87;100.00
41886;BME280;27567;43.084;25.616;2023-05-29T08:20:47;98127.00;;;15.26;100.00
41886;BME280;27567;43.084;25.616;2023-05-29T08:23:31;98128.06;;;15.25;100.00
41886;BME280;27567;43.084;25.616;2023-05-29T08:26:15;98123.59;;;15.07;100.00
41886;BME280;27567;43.084;25.616;2023-05-29T08:28:59;98128.78;;;15.08;100.00
41886;BME280;27567;43.084;25.616;2023-05-29T08:31:43;98132.75;;;15.06;100.00
41886;BME280;27567;43.084;25.616;2023-05-29T08:34:27;98136.44;;;14.99;100.00
41886;BME280;27567;43.084;25.616;2023-05-29T08:37:12;98131.16;;;15.05;100.00
41886;BME280;27567;43.084;25.616;2023-05-29T08:39:56;98129.84;;;14.95;100.00
41886;BME280;27567;43.084;25.616;2023-05-29T08:42:51;98134.53;;;14.88;100.00
41886;BME280;27567;43.084;25.616;2023-05-29T08:45:42;98132.44;;;14.78;100.00
41886;BME280;27567;43.084;25.616;2023-05-29T08:48:27;98129.25;;;14.93;100.00
41886;BME280;27567;43.084;25.616;2023-05-29T08:51:12;98111.09;;;14.88;100.00
41886;BME280;27567;43.084;25.616;2023-05-29T08:53:56;98123.63;;;14.95;100.00
41886;BME280;27567;43.084;25.616;2023-05-29T08:56:41;98122.44;;;15.26;100.00
41886;BME280;27567;43.084;25.616;2023-05-29T08:59:25;98122.03;;;15.35;100.00
41886;BME280;27567;43.084;25.616;2023-05-29T09:02:11;98121.56;;;15.38;100.00
41886;BME280;27567;43.084;25.616;2023-05-29T09:04:58;98120.78;;;15.37;100.00
41886;BME280;27567;43.084;25.616;2023-05-29T09:07:42;98112.53;;;15.44;100.00
41886;BME280;27567;43.084;25.616;2023-05-29T09:10:27;98111.25;;;15.75;100.00
41886;BME280;27567;43.084;25.616;2023-05-29T09:13:12;98109.25;;;16.29;100.00
41886;BME280;27567;43.084;25.616;2023-05-29T09:15:58;98104.75;;;16.68;100.00
41886;BME280;27567;43.084;25.616;2023-05-29T09:18:42;98095.72;;;16.80;100.00
41886;BME280;27567;43.084;25.616;2023-05-29T09:21:30;98074.13;;;17.69;100.00
41886;BME280;27567;43.084;25.616;2023-05-29T09:24:17;98072.06;;;18.03;100.00
41886;BME280;27567;43.084;25.616;2023-05-29T09:27:01;98060.19;;;18.10;100.00
41886;BME280;27567;43.084;25.616;2023-05-29T09:29:46;98068.34;;;18.90;100.00
41886;BME280;27567;43.084;25.616;2023-05-29T09:32:32;98068.84;;;18.39;100.00
41886;BME280;27567;43.084;25.616;2023-05-29T09:35:19;98070.19;;;18.37;100.00
41886;BME280;27567;43.084;25.616;2023-05-29T09:38:04;98071.50;;;17.52;100.00
41886;BME280;27567;43.084;25.616;2023-05-29T09:40:49;98091.78;;;16.71;100.00
41886;BME280;27567;43.084;25.616;2023-05-29T09:43:32;98088.09;;;16.43;100.00
41886;BME280;27567;43.084;25.616;2023-05-29T09:46:16;98091.81;;;16.36;100.00
41886;BME280;27567;43.084;25.616;2023-05-29T09:49:10;98097.91;;;16.15;100.00
41886;BME280;27567;43.084;25.616;2023-05-29T09:51:54;98088.69;;;16.11;100.00
41886;BME280;27567;43.084;25.616;2023-05-29T09:54:38;98090.75;;;16.20;100.00
41886;BME280;27567;43.084;25.616;2023-05-29T09:57:24;98093.03;;;16.29;100.00
41886;BME280;27567;43.084;25.616;2023-05-29T10:00:09;98074.44;;;16.32;100.00
41886;BME280;27567;43.084;25.616;2023-05-29T10:02:56;98087.16;;;16.88;100.00
41886;BME280;27567;43.084;25.616;2023-05-29T10:05:42;98084.91;;;16.80;100.00
41886;BME280;27567;43.084;25.616;2023-05-29T10:08:27;98075.06;;;16.57;100.00
41886;BME280;27567;43.084;25.616;2023-05-29T10:11:13;98077.00;;;16.78;100.00
41886;BME280;27567;43.084;25.616;2023-05-29T10:14:02;98069.91;;;17.56;100.00
41886;BME280;27567;43.084;25.616;2023-05-29T10:16:49;98064.44;;;18.00;100.00
41886;BME280;27567;43.084;25.616;2023-05-29T10:19:36;98066.63;;;17.76;100.00
41886;BME280;27567;43.084;25.616;2023-05-29T10:22:22;98069.34;;;18.36;100.00
41886;BME280;27567;43.084;25.616;2023-05-29T10:25:09;98068.19;;;18.59;100.00
41886;BME280;27567;43.084;25.616;2023-05-29T10:27:55;98062.63;;;17.84;100.00
41886;BME280;27567;43.084;25.616;2023-05-29T10:30:54;98072.19;;;17.42;100.00
41886;BME280;27567;43.084;25.616;2023-05-29T10:37:04;98061.06;;;17.66;100.00
41886;BME280;27567;43.084;25.616;2023-05-29T10:39:50;98047.38;;;17.28;100.00
41886;BME280;27567;43.084;25.616;2023-05-29T10:51:05;98046.53;;;17.05;100.00
41886;BME280;27567;43.084;25.616;2023-05-29T10:53:51;98052.03;;;17.10;100.00
41886;BME280;27567;43.084;25.616;2023-05-29T10:56:36;98051.28;;;17.15;100.00
41886;BME280;27567;43.084;25.616;2023-05-29T10:59:20;98038.13;;;16.85;100.00
41886;BME280;27567;43.084;25.616;2023-05-29T11:02:04;98048.88;;;16.79;100.00
41886;BME280;27567;43.084;25.616;2023-05-29T11:05:18;98049.91;;;16.39;100.00
41886;BME280;27567;43.084;25.616;2023-05-29T11:08:02;98050.56;;;16.29;100.00
41886;BME280;27567;43.084;25.616;2023-05-29T11:13:34;98043.53;;;16.45;100.00
41886;BME280;27567;43.084;25.616;2023-05-29T11:19:09;98040.50;;;16.98;100.00
41886;BME280;27567;43.084;25.616;2023-05-29T11:22:09;98039.19;;;17.01;100.00
41886;BME280;27567;43.084;25.616;2023-05-29T11:24:59;98034.03;;;17.21;100.00
41886;BME280;27567;43.084;25.616;2023-05-29T11:27:44;98034.81;;;17.44;100.00
41886;BME280;27567;43.084;25.616;2023-05-29T11:30:28;98034.59;;;18.00;100.00
41886;BME280;27567;43.084;25.616;2023-05-29T11:33:26;98028.50;;;18.15;100.00
41886;BME280;27567;43.084;25.616;2023-05-29T11:36:10;98025.44;;;18.07;100.00
41886;BME280;27567;43.084;25.616;2023-05-29T11:38:54;98039.94;;;17.40;100.00
41886;BME280;27567;43.084;25.616;2023-05-29T11:41:38;98044.72;;;17.33;100.00
41886;BME280;27567;43.084;25.616;2023-05-29T11:44:26;98053.59;;;17.06;100.00
41886;BME280;27567;43.084;25.616;2023-05-29T11:47:10;98048.38;;;16.82;100.00
41886;BME280;27567;43.084;25.616;2023-05-29T11:49:53;98059.31;;;16.71;100.00
41886;BME280;27567;43.084;25.616;2023-05-29T11:52:45;98041.25;;;16.76;100.00
41886;BME280;27567;43.084;25.616;2023-05-29T11:55:30;98063.75;;;16.60;100.00
41886;BME280;27567;43.084;25.616;2023-05-29T11:58:14;98047.41;;;16.72;100.00
41886;BME280;27567;43.084;25.616;2023-05-29T12:01:00;98063.03;;;16.47;100.00
41886;BME280;27567;43.084;25.616;2023-05-29T12:03:43;98061.13;;;16.82;100.00
41886;BME280;27567;43.084;25.616;2023-05-29T12:06:35;98050.78;;;16.96;100.00
41886;BME280;27567;43.084;25.616;2023-05-29T12:09:28;98042.78;;;16.89;100.00
41886;BME280;27567;43.084;25.616;2023-05-29T12:12:12;98049.84;;;16.90;100.00
41886;BME280;27567;43.084;25.616;2023-05-29T12:14:56;98053.09;;;17.09;100.00
41886;BME280;27567;43.084;25.616;2023-05-29T12:17:40;98049.97;;;17.18;100.00
41886;BME280;27567;43.084;25.616;2023-05-29T12:20:25;98050.41;;;17.09;100.00
41886;BME280;27567;43.084;25.616;2023-05-29T12:23:12;98046.03;;;16.69;100.00
41886;BME280;27567;43.084;25.616;2023-05-29T12:25:57;98032.63;;;16.23;100.00
41886;BME280;27567;43.084;25.616;2023-05-29T12:28:44;98021.66;;;16.13;100.00
41886;BME280;27567;43.084;25.616;2023-05-29T12:31:28;98029.75;;;16.30;100.00
41886;BME280;27567;43.084;25.616;2023-05-29T12:34:13;98016.31;;;16.18;100.00
41886;BME280;27567;43.084;25.616;2023-05-29T12:37:07;98025.25;;;16.35;100.00
41886;BME280;27567;43.084;25.616;2023-05-29T12:40:19;98024.69;;;16.33;100.00
41886;BME280;27567;43.084;25.616;2023-05-29T12:43:09;98016.00;;;16.31;100.00
41886;BME280;27567;43.084;25.616;2023-05-29T12:45:56;98027.78;;;16.42;100.00
41886;BME280;27567;43.084;25.616;2023-05-29T12:48:41;98018.00;;;16.58;100.00
41886;BME280;27567;43.084;25.616;2023-05-29T12:51:26;98012.84;;;16.57;100.00
41886;BME280;27567;43.084;25.616;2023-05-29T12:54:12;98010.38;;;16.72;100.00
41886;BME280;27567;43.084;25.616;2023-05-29T12:56:56;98003.34;;;16.76;100.00
41886;BME280;27567;43.084;25.616;2023-05-29T12:59:40;98008.50;;;16.95;100.00
41886;BME280;27567;43.084;25.616;2023-05-29T13:02:24;98008.41;;;17.07;100.00
41886;BME280;27567;43.084;25.616;2023-05-29T13:05:08;98004.47;;;16.97;100.00
41886;BME280;27567;43.084;25.616;2023-05-29T13:07:52;98010.03;;;17.08;100.00
41886;BME280;27567;43.084;25.616;2023-05-29T13:10:36;97992.97;;;17.35;100.00
41886;BME280;27567;43.084;25.616;2023-05-29T13:13:20;98000.00;;;17.58;100.00
41886;BME280;27567;43.084;25.616;2023-05-29T13:16:05;97995.91;;;17.83;100.00
41886;BME280;27567;43.084;25.616;2023-05-29T13:18:50;97987.75;;;18.05;100.00
41886;BME280;27567;43.084;25.616;2023-05-29T13:21:34;97995.88;;;18.10;100.00
41886;BME280;27567;43.084;25.616;2023-05-29T13:24:19;97995.09;;;18.10;100.00
41886;BME280;27567;43.084;25.616;2023-05-29T13:27:04;97993.97;;;18.06;100.00
41886;BME280;27567;43.084;25.616;2023-05-29T13:29:49;97991.03;;;18.12;100.00
41886;BME280;27567;43.084;25.616;2023-05-29T13:32:34;97989.06;;;18.40;100.00
41886;BME280;27567;43.084;25.616;2023-05-29T13:35:18;97986.78;;;18.65;100.00
41886;BME280;27567;43.084;25.616;2023-05-29T13:38:02;97993.28;;;18.63;100.00
41886;BME280;27567;43.084;25.616;2023-05-29T13:40:46;97986.94;;;18.96;100.00
41886;BME280;27567;43.084;25.616;2023-05-29T13:43:30;97984.31;;;19.16;100.00
41886;BME280;27567;43.084;25.616;2023-05-29T13:46:15;97995.25;;;19.47;100.00
41886;BME280;27567;43.084;25.616;2023-05-29T13:48:59;97995.59;;;19.66;100.00
41886;BME280;27567;43.084;25.616;2023-05-29T13:51:43;97994.50;;;19.83;100.00
41886;BME280;27567;43.084;25.616;2023-05-29T13:54:30;97997.28;;;19.93;100.00
41886;BME280;27567;43.084;25.616;2023-05-29T13:57:19;98002.66;;;20.66;100.00
41886;BME280;27567;43.084;25.616;2023-05-29T14:00:04;97993.94;;;20.64;100.00
41886;BME280;27567;43.084;25.616;2023-05-29T14:02:49;97989.84;;;20.71;100.00
41886;BME280;27567;43.084;25.616;2023-05-29T14:05:33;97998.03;;;20.77;100.00
41886;BME280;27567;43.084;25.616;2023-05-29T14:08:17;98001.16;;;21.10;100.00
41886;BME280;27567;43.084;25.616;2023-05-29T14:11:01;97995.34;;;20.46;100.00
41886;BME280;27567;43.084;25.616;2023-05-29T14:13:45;97985.34;;;21.17;100.00
41886;BME280;27567;43.084;25.616;2023-05-29T14:16:30;97983.44;;;21.68;100.00
41886;BME280;27567;43.084;25.616;2023-05-29T14:19:14;97977.06;;;23.20;100.00
41886;BME280;27567;43.084;25.616;2023-05-29T14:21:57;97987.09;;;25.51;100.00
41886;BME280;27567;43.084;25.616;2023-05-29T14:24:43;97991.78;;;27.05;100.00
41886;BME280;27567;43.084;25.616;2023-05-29T14:27:27;97999.03;;;28.02;100.00
41886;BME280;27567;43.084;25.616;2023-05-29T14:30:11;98007.34;;;26.01;100.00
41886;BME280;27567;43.084;25.616;2023-05-29T14:32:56;98002.03;;;28.62;100.00
41886;BME280;27567;43.084;25.616;2023-05-29T14:35:40;98006.44;;;30.51;100.00
41886;BME280;27567;43.084;25.616;2023-05-29T14:38:25;97997.69;;;29.00;100.00